sensor_id;sensor_type;location;lat;lon;timestamp;pressure;altitude;pressure_sealevel;temperature;humidity
21449;BME280;10885;52.830;13.788;2023-05-01T05:13:41;101566.84;;;3.82;77.57
21449;BME280;10885;52.830;13.788;2023-05-01T05:19:05;101559.00;;;4.13;77.15
21449;BME280;10885;52.830;13.788;2023-05-01T05:24:30;101556.06;;;4.44;76.10
21449;BME280;10885;52.830;13.788;2023-05-01T05:29:52;101548.84;;;4.74;73.99
21449;BME280;10885;52.830;13.788;2023-05-01T05:35:13;101539.19;;;5.07;73.20
21449;BME280;10885;52.830;13.788;2023-05-01T05:40:34;101539.97;;;5.42;72.09
21449;BME280;10885;52.830;13.788;2023-05-01T05:45:57;101533.66;;;5.75;71.28
21449;BME280;10885;52.830;13.788;2023-05-01T05:51:19;101534.75;;;5.96;70.22
21449;BME280;10885;52.830;13.788;2023-05-01T05:56:40;101534.34;;;6.29;68.48
21449;BME280;10885;52.830;13.788;2023-05-01T06:02:03;101527.41;;;6.66;68.25
21449;BME280;10885;52.830;13.788;2023-05-01T06:07:24;101526.06;;;7.09;66.72
21449;BME280;10885;52.830;13.788;2023-05-01T06:12:45;101520.03;;;7.48;65.81
21449;BME280;10885;52.830;13.788;2023-05-01T06:18:07;101517.13;;;7.85;64.40
21449;BME280;10885;52.830;13.788;2023-05-01T06:23:29;101517.06;;;8.36;63.34
21449;BME280;10885;52.830;13.788;2023-05-01T06:29:16;101515.88;;;8.85;60.73
21449;BME280;10885;52.830;13.788;2023-05-01T06:34:37;101503.84;;;9.39;57.73
21449;BME280;10885;52.830;13.788;2023-05-01T06:39:58;101507.69;;;9.89;54.75
21449;BME280;10885;52.830;13.788;2023-05-01T06:45:19;101496.50;;;10.46;51.89
21449;BME280;10885;52.830;13.788;2023-05-01T06:50:42;101501.41;;;11.04;51.72
21449;BME280;10885;52.830;13.788;2023-05-01T06:56:03;101497.38;;;11.44;46.17
21449;BME280;10885;52.830;13.788;2023-05-01T07:01:25;101493.13;;;11.83;45.09
21449;BME280;10885;52.830;13.788;2023-05-01T07:06:46;101493.03;;;12.20;44.50
21449;BME280;10885;52.830;13.788;2023-05-01T07:12:07;101486.44;;;13.05;43.98
21449;BME280;10885;52.830;13.788;2023-05-01T07:17:28;101483.75;;;14.20;41.63
21449;BME280;10885;52.830;13.788;2023-05-01T07:22:49;101492.28;;;15.95;40.23
21449;BME280;10885;52.830;13.788;2023-05-01T07:28:10;101497.59;;;19.38;30.76
21449;BME280;10885;52.830;13.788;2023-05-01T07:33:31;101492.03;;;21.47;26.73
21449;BME280;10885;52.830;13.788;2023-05-01T07:38:52;101481.63;;;22.51;25.40
21449;BME280;10885;52.830;13.788;2023-05-01T07:44:13;101480.50;;;21.38;26.59
21449;BME280;10885;52.830;13.788;2023-05-01T07:49:35;101469.78;;;19.61;28.91
21449;BME280;10885;52.830;13.788;2023-05-01T07:54:57;101468.88;;;19.11;29.61
21449;BME280;10885;52.830;13.788;2023-05-01T08:00:18;101454.94;;;18.64;30.86
21449;BME280;10885;52.830;13.788;2023-05-01T08:05:41;101444.38;;;19.04;29.83
21449;BME280;10885;52.830;13.788;2023-05-01T08:11:02;101434.22;;;19.11;28.97
21449;BME280;10885;52.830;13.788;2023-05-01T08:16:23;101425.47;;;19.33;27.71
21449;BME280;10885;52.830;13.788;2023-05-01T08:21:44;101427.78;;;19.01;28.03
21449;BME280;10885;52.830;13.788;2023-05-01T08:27:05;101432.41;;;20.11;27.15
21449;BME280;10885;52.830;13.788;2023-05-01T08:32:26;101437.63;;;20.38;26.25
21449;BME280;10885;52.830;13.788;2023-05-01T08:37:47;101419.00;;;18.97;26.74
21449;BME280;10885;52.830;13.788;2023-05-01T08:43:08;101430.13;;;18.71;27.89
21449;BME280;10885;52.830;13.788;2023-05-01T08:48:30;101416.00;;;19.60;27.19
21449;BME280;10885;52.830;13.788;2023-05-01T08:53:53;101413.69;;;19.94;27.49
21449;BME280;10885;52.830;13.788;2023-05-01T08:59:17;101407.66;;;20.81;26.74
21449;BME280;10885;52.830;13.788;2023-05-01T09:04:39;101402.53;;;21.48;26.53
21449;BME280;10885;52.830;13.788;2023-05-01T09:10:01;101400.78;;;22.57;24.50
21449;BME280;10885;52.830;13.788;2023-05-01T09:15:24;101381.50;;;22.95;23.46
21449;BME280;10885;52.830;13.788;2023-05-01T09:20:46;101372.09;;;22.59;24.46
21449;BME280;10885;52.830;13.788;2023-05-01T09:26:07;101369.38;;;21.78;23.06
21449;BME280;10885;52.830;13.788;2023-05-01T09:31:29;101365.84;;;21.75;23.67
21449;BME280;10885;52.830;13.788;2023-05-01T09:36:52;101353.19;;;22.30;24.05
21449;BME280;10885;52.830;13.788;2023-05-01T09:42:22;101352.03;;;21.79;23.36
21449;BME280;10885;52.830;13.788;2023-05-01T09:47:44;101346.56;;;21.36;24.76
21449;BME280;10885;52.830;13.788;2023-05-01T09:53:05;101333.09;;;23.15;22.60
21449;BME280;10885;52.830;13.788;2023-05-01T09:58:26;101334.63;;;24.11;21.13
21449;BME280;10885;52.830;13.788;2023-05-01T10:03:52;101317.19;;;24.83;20.50
21449;BME280;10885;52.830;13.788;2023-05-01T10:09:26;101308.56;;;24.95;20.73
21449;BME280;10885;52.830;13.788;2023-05-01T10:14:52;101302.31;;;23.51;20.77
21449;BME280;10885;52.830;13.788;2023-05-01T10:20:13;101291.53;;;23.87;20.74
21449;BME280;10885;52.830;13.788;2023-05-01T10:25:35;101297.22;;;22.61;21.94
21449;BME280;10885;52.830;13.788;2023-05-01T10:30:56;101278.69;;;22.08;22.35
21449;BME280;10885;52.830;13.788;2023-05-01T10:36:21;101281.63;;;21.44;23.57
21449;BME280;10885;52.830;13.788;2023-05-01T11:03:58;101229.09;;;24.21;21.97
21449;BME280;10885;52.830;13.788;2023-05-01T11:09:40;101219.25;;;23.98;21.22
21449;BME280;10885;52.830;13.788;2023-05-01T11:15:02;101203.31;;;24.56;21.63
21449;BME280;10885;52.830;13.788;2023-05-01T11:25:49;101195.78;;;24.93;19.95
21449;BME280;10885;52.830;13.788;2023-05-01T11:31:16;101177.75;;;24.34;21.04
21449;BME280;10885;52.830;13.788;2023-05-01T11:36:48;101181.19;;;25.28;20.53
21449;BME280;10885;52.830;13.788;2023-05-01T11:42:09;101159.88;;;24.83;20.73
21449;BME280;10885;52.830;13.788;2023-05-01T11:47:33;101150.94;;;24.63;19.96
21449;BME280;10885;52.830;13.788;2023-05-01T11:52:55;101142.25;;;23.82;21.97
21449;BME280;10885;52.830;13.788;2023-05-01T11:58:16;101138.13;;;24.95;21.58
21449;BME280;10885;52.830;13.788;2023-05-01T12:03:41;101123.84;;;24.57;20.92
21449;BME280;10885;52.830;13.788;2023-05-01T12:09:06;101107.13;;;23.67;21.18
21449;BME280;10885;52.830;13.788;2023-05-01T12:14:28;101101.28;;;23.16;21.62
21449;BME280;10885;52.830;13.788;2023-05-01T12:19:50;101101.25;;;22.12;24.04
21449;BME280;10885;52.830;13.788;2023-05-01T12:25:12;101117.69;;;22.52;22.68
21449;BME280;10885;52.830;13.788;2023-05-01T12:30:34;101101.72;;;22.92;22.70
21449;BME280;10885;52.830;13.788;2023-05-01T12:36:08;101086.59;;;23.27;21.87
21449;BME280;10885;52.830;13.788;2023-05-01T12:41:47;101071.59;;;24.82;20.33
21449;BME280;10885;52.830;13.788;2023-05-01T12:47:08;101077.56;;;23.74;20.92
21449;BME280;10885;52.830;13.788;2023-05-01T12:52:29;101060.31;;;23.19;21.72
21449;BME280;10885;52.830;13.788;2023-05-01T12:57:52;101054.72;;;22.93;22.53
21449;BME280;10885;52.830;13.788;2023-05-01T13:03:14;101045.63;;;22.15;24.52
21449;BME280;10885;52.830;13.788;2023-05-01T13:08:41;101045.03;;;22.30;24.02
21449;BME280;10885;52.830;13.788;2023-05-01T13:14:09;101040.09;;;21.52;23.23
21449;BME280;10885;52.830;13.788;2023-05-01T13:19:30;101040.63;;;21.36;23.75
21449;BME280;10885;52.830;13.788;2023-05-01T13:24:52;101035.41;;;22.27;23.55
21449;BME280;10885;52.830;13.788;2023-05-01T13:30:19;101021.81;;;23.08;22.52
21449;BME280;10885;52.830;13.788;2023-05-01T13:35:43;101029.66;;;23.08;21.77
21449;BME280;10885;52.830;13.788;2023-05-01T13:41:04;101016.66;;;23.11;23.30
21449;BME280;10885;52.830;13.788;2023-05-01T13:46:25;101005.72;;;23.46;22.56
21449;BME280;10885;52.830;13.788;2023-05-01T13:51:48;101008.03;;;23.96;22.58
21449;BME280;10885;52.830;13.788;2023-05-01T13:57:10;101002.81;;;24.00;21.13
21449;BME280;10885;52.830;13.788;2023-05-01T14:02:31;100978.22;;;23.05;22.58
21449;BME280;10885;52.830;13.788;2023-05-01T14:07:53;100972.03;;;23.00;23.08
21449;BME280;10885;52.830;13.788;2023-05-01T14:13:16;100976.19;;;22.84;22.98
21449;BME280;10885;52.830;13.788;2023-05-01T14:18:45;100963.56;;;22.54;22.92
21449;BME280;10885;52.830;13.788;2023-05-01T14:24:07;100957.38;;;22.47;23.20
21449;BME280;10885;52.830;13.788;2023-05-01T14:29:29;100954.28;;;22.16;23.24
21449;BME280;10885;52.830;13.788;2023-05-01T14:34:51;100952.28;;;22.01;23.47
21449;BME280;10885;52.830;13.788;2023-05-01T14:40:12;100940.72;;;21.85;23.81
21449;BME280;10885;52.830;13.788;2023-05-01T14:45:39;100939.66;;;22.24;23.62
21449;BME280;10885;52.830;13.788;2023-05-01T14:51:08;100938.53;;;22.12;24.20
21449;BME280;10885;52.830;13.788;2023-05-01T14:56:30;100925.13;;;22.43;23.60
21449;BME280;10885;52.830;13.788;2023-05-01T15:01:51;100930.22;;;23.01;23.63
21449;BME280;10885;52.830;13.788;2023-05-01T15:07:12;100916.75;;;23.42;22.20
21449;BME280;10885;52.830;13.788;2023-05-01T15:12:33;100924.84;;;23.69;22.22
21449;BME280;10885;52.830;13.788;2023-05-01T15:17:54;100919.72;;;22.97;23.07
21449;BME280;10885;52.830;13.788;2023-05-01T15:23:15;100908.88;;;22.64;23.43
21449;BME280;10885;52.830;13.788;2023-05-01T15:28:37;100909.91;;;22.79;23.32
21449;BME280;10885;52.830;13.788;2023-05-01T15:33:58;100910.22;;;23.03;22.37
21449;BME280;10885;52.830;13.788;2023-05-01T15:39:19;100906.19;;;23.33;21.55
21449;BME280;10885;52.830;13.788;2023-05-01T15:44:40;100909.19;;;23.75;21.47
21449;BME280;10885;52.830;13.788;2023-05-01T15:50:02;100909.44;;;23.99;21.60
21449;BME280;10885;52.830;13.788;2023-05-01T15:55:23;100904.72;;;23.60;21.53
21449;BME280;10885;52.830;13.788;2023-05-01T16:00:44;100898.91;;;23.03;22.34
21449;BME280;10885;52.830;13.788;2023-05-01T16:06:07;100892.09;;;21.92;23.32
21449;BME280;10885;52.830;13.788;2023-05-01T16:11:29;100886.16;;;21.48;24.51
21449;BME280;10885;52.830;13.788;2023-05-01T16:16:50;100891.13;;;21.35;24.45
21449;BME280;10885;52.830;13.788;2023-05-01T16:22:13;100891.06;;;21.32;24.55
21449;BME280;10885;52.830;13.788;2023-05-01T16:27:38;100889.22;;;21.25;24.75
21449;BME280;10885;52.830;13.788;2023-05-01T16:33:01;100888.16;;;21.15;25.18
21449;BME280;10885;52.830;13.788;2023-05-01T16:38:25;100882.59;;;20.98;25.42
21449;BME280;10885;52.830;13.788;2023-05-01T16:43:47;100883.34;;;20.91;25.63
21449;BME280;10885;52.830;13.788;2023-05-01T16:49:10;100880.44;;;20.76;25.36
21449;BME280;10885;52.830;13.788;2023-05-01T16:54:31;100879.44;;;20.71;25.56
21449;BME280;10885;52.830;13.788;2023-05-01T16:59:55;100878.94;;;20.87;25.68
21449;BME280;10885;52.830;13.788;2023-05-01T17:05:17;100873.56;;;20.79;25.91
21449;BME280;10885;52.830;13.788;2023-05-01T17:10:38;100872.53;;;20.71;26.21
21449;BME280;10885;52.830;13.788;2023-05-01T17:15:59;100864.28;;;20.53;26.30
21449;BME280;10885;52.830;13.788;2023-05-01T17:21:21;100874.84;;;20.19;26.79
21449;BME280;10885;52.830;13.788;2023-05-01T17:26:44;100876.88;;;19.95;27.30
21449;BME280;10885;52.830;13.788;2023-05-01T17:32:06;100864.06;;;19.69;27.53
21449;BME280;10885;52.830;13.788;2023-05-01T17:37:27;100871.47;;;19.52;27.91
21449;BME280;10885;52.830;13.788;2023-05-01T17:42:48;100864.84;;;19.30;28.09
21449;BME280;10885;52.830;13.788;2023-05-01T17:48:09;100862.66;;;19.14;27.97
21449;BME280;10885;52.830;13.788;2023-05-01T17:53:31;100864.59;;;18.89;28.91
21449;BME280;10885;52.830;13.788;2023-05-01T17:58:52;100860.53;;;18.70;29.31
21449;BME280;10885;52.830;13.788;2023-05-01T18:04:14;100854.88;;;18.53;29.70
21449;BME280;10885;52.830;13.788;2023-05-01T18:09:35;100855.84;;;18.28;30.17
21449;BME280;10885;52.830;13.788;2023-05-01T18:14:56;100850.72;;;18.01;31.19
21449;BME280;10885;52.830;13.788;2023-05-01T18:20:17;100857.63;;;17.75;31.90
21449;BME280;10885;52.830;13.788;2023-05-01T18:25:39;100857.75;;;17.52;32.18
21449;BME280;10885;52.830;13.788;2023-05-01T18:31:00;100851.78;;;17.29;32.68
21449;BME280;10885;52.830;13.788;2023-05-01T18:36:21;100845.88;;;17.07;32.68
21449;BME280;10885;52.830;13.788;2023-05-01T18:41:43;100838.91;;;16.82;33.74
21449;BME280;10885;52.830;13.788;2023-05-01T18:47:03;100847.72;;;16.63;34.66
21449;BME280;10885;52.830;13.788;2023-05-01T18:52:24;100851.13;;;16.40;34.95
21449;BME280;10885;52.830;13.788;2023-05-01T18:57:45;100852.03;;;16.18;36.33
21449;BME280;10885;52.830;13.788;2023-05-01T19:03:08;100852.88;;;15.96;37.39
21449;BME280;10885;52.830;13.788;2023-05-01T19:08:31;100850.38;;;15.76;37.32
21449;BME280;10885;52.830;13.788;2023-05-01T19:13:53;100856.38;;;15.56;38.88
21449;BME280;10885;52.830;13.788;2023-05-01T19:19:13;100851.22;;;15.35;40.01
21449;BME280;10885;52.830;13.788;2023-05-01T19:24:34;100857.22;;;15.14;40.31
21449;BME280;10885;52.830;13.788;2023-05-01T19:29:55;100860.19;;;15.04;40.14
21449;BME280;10885;52.830;13.788;2023-05-01T19:35:20;100860.28;;;14.86;40.98
21449;BME280;10885;52.830;13.788;2023-05-01T19:40:41;100858.78;;;14.71;42.17
21449;BME280;10885;52.830;13.788;2023-05-01T19:46:05;100862.44;;;14.57;42.00
21449;BME280;10885;52.830;13.788;2023-05-01T19:51:26;100854.63;;;14.38;42.92
21449;BME280;10885;52.830;13.788;2023-05-01T19:56:48;100850.66;;;14.26;43.45
21449;BME280;10885;52.830;13.788;2023-05-01T20:02:11;100845.31;;;14.04;44.25
21449;BME280;10885;52.830;13.788;2023-05-01T20:07:32;100849.81;;;13.90;45.47
21449;BME280;10885;52.830;13.788;2023-05-01T20:12:55;100842.31;;;13.77;45.79
21449;BME280;10885;52.830;13.788;2023-05-01T20:18:16;100848.66;;;13.65;45.98
21449;BME280;10885;52.830;13.788;2023-05-01T20:23:37;100849.13;;;13.58;45.69
21449;BME280;10885;52.830;13.788;2023-05-01T20:28:58;100844.91;;;13.42;45.99
21449;BME280;10885;52.830;13.788;2023-05-01T20:34:21;100853.94;;;13.34;45.61
21449;BME280;10885;52.830;13.788;2023-05-01T20:39:42;100843.09;;;13.23;45.96
21449;BME280;10885;52.830;13.788;2023-05-01T20:45:03;100849.94;;;13.06;47.21
21449;BME280;10885;52.830;13.788;2023-05-01T20:50:25;100857.19;;;12.81;48.49
21449;BME280;10885;52.830;13.788;2023-05-01T20:55:46;100863.75;;;12.59;49.76
21449;BME280;10885;52.830;13.788;2023-05-01T21:01:09;100850.00;;;12.59;49.19
21449;BME280;10885;52.830;13.788;2023-05-01T21:06:31;100853.09;;;12.51;49.91
21449;BME280;10885;52.830;13.788;2023-05-01T21:11:53;100847.44;;;12.42;49.59
21449;BME280;10885;52.830;13.788;2023-05-01T21:17:16;100850.41;;;12.33;50.88
21449;BME280;10885;52.830;13.788;2023-05-01T21:22:39;100855.66;;;12.20;50.79
21449;BME280;10885;52.830;13.788;2023-05-01T21:28:01;100853.72;;;12.16;50.57
21449;BME280;10885;52.830;13.788;2023-05-01T21:33:23;100855.00;;;12.08;51.01
21449;BME280;10885;52.830;13.788;2023-05-01T21:38:45;100858.81;;;12.00;51.71
21449;BME280;10885;52.830;13.788;2023-05-01T21:44:06;100860.31;;;11.96;50.88
21449;BME280;10885;52.830;13.788;2023-05-01T21:49:29;100860.78;;;11.89;52.38
21449;BME280;10885;52.830;13.788;2023-05-01T21:54:50;100855.97;;;11.80;51.17
